createdAt,value
2023-03-07T00:00:50.284Z,100321.72
2023-03-07T00:05:46.231Z,100478.25
2023-03-07T00:10:39.553Z,100448.78
2023-03-07T00:15:32.759Z,100454.75
2023-03-07T00:20:25.903Z,100449.31
2023-03-07T00:25:23.695Z,100453.94
2023-03-07T00:30:16.918Z,100376.53
2023-03-07T00:35:10.382Z,100461.88
2023-03-07T00:40:06.017Z,100443.16
2023-03-07T00:45:00.663Z,100440.38
2023-03-07T00:49:56.878Z,100401.66
2023-03-07T00:54:50.031Z,100373.16
2023-03-07T00:59:46.228Z,100406.50
2023-03-07T01:04:42.204Z,100231.19
2023-03-07T01:09:35.340Z,100374.50
2023-03-07T01:14:28.564Z,100371.78
2023-03-07T01:19:21.821Z,100397.34
2023-03-07T01:24:18.104Z,100402.59
2023-03-07T01:29:12.768Z,100295.34
2023-03-07T01:34:06.711Z,100357.22
2023-03-07T01:39:06.662Z,100261.03
2023-03-07T01:44:06.459Z,100381.16
2023-03-07T01:49:05.145Z,100320.34
2023-03-07T01:54:02.197Z,100364.13
2023-03-07T01:58:56.642Z,100348.09
2023-03-07T02:03:56.148Z,100330.19
2023-03-07T02:08:51.210Z,100123.88
2023-03-07T02:13:47.764Z,100322.09
2023-03-07T02:18:50.716Z,100181.00
2023-03-07T02:23:59.885Z,100281.16
2023-03-07T02:28:56.204Z,100354.53
2023-03-07T02:33:52.672Z,100342.75
2023-03-07T02:38:53.441Z,100378.38
2023-03-07T02:45:03.683Z,100237.22
2023-03-07T02:50:19.129Z,100369.44
2023-03-07T02:55:24.322Z,100325.41
2023-03-07T03:00:26.153Z,100186.47
2023-03-07T03:05:24.414Z,100328.13
2023-03-07T03:10:20.805Z,100263.94
2023-03-07T03:15:14.162Z,100307.13
2023-03-07T03:20:11.857Z,100358.53
2023-03-07T03:25:06.051Z,100350.66
2023-03-07T03:29:59.443Z,100347.88
2023-03-07T03:34:52.865Z,100266.72
2023-03-07T03:39:47.426Z,100318.41
2023-03-07T03:44:43.623Z,100359.56
2023-03-07T03:49:38.253Z,100260.09
2023-03-07T03:54:32.420Z,100198.94
2023-03-07T03:59:29.382Z,100359.13
2023-03-07T04:04:23.815Z,100288.81
2023-03-07T04:09:17.324Z,100358.81
2023-03-07T04:14:13.496Z,100360.06
2023-03-07T04:19:10.241Z,100374.69
2023-03-07T04:24:03.854Z,100332.44
2023-03-07T04:28:59.458Z,100400.56
2023-03-07T04:33:59.132Z,100393.75
2023-03-07T04:38:54.317Z,100353.25
2023-03-07T04:43:48.241Z,100383.28
2023-03-07T04:48:43.614Z,100191.69
2023-03-07T04:53:37.264Z,100382.00
2023-03-07T04:58:33.961Z,100392.00
2023-03-07T05:03:28.574Z,100322.91
2023-03-07T05:08:23.209Z,100393.41
2023-03-07T05:13:16.830Z,100186.84
2023-03-07T05:18:11.775Z,100295.97
2023-03-07T05:23:05.179Z,100375.38
2023-03-07T05:27:58.698Z,100219.22
2023-03-07T05:32:52.480Z,100340.09
2023-03-07T05:37:47.873Z,100337.06
2023-03-07T05:42:41.538Z,100333.34
2023-03-07T05:47:35.107Z,100295.47
2023-03-07T05:52:29.114Z,100386.53
2023-03-07T05:57:26.713Z,100329.53
2023-03-07T06:02:20.167Z,100240.81
2023-03-07T06:07:13.731Z,100405.88
2023-03-07T06:12:09.448Z,100336.13
2023-03-07T06:17:05.036Z,100411.66
2023-03-07T06:22:02.123Z,100329.13
2023-03-07T06:26:57.229Z,100392.03
2023-03-07T06:31:55.631Z,100240.13
2023-03-07T06:36:51.005Z,100323.69
2023-03-07T06:41:48.686Z,100421.47
2023-03-07T06:46:45.335Z,100268.16
2023-03-07T06:51:45.023Z,100386.06
2023-03-07T06:56:45.379Z,100416.03
2023-03-07T07:01:42.465Z,100427.56
2023-03-07T07:06:36.125Z,100435.59
2023-03-07T07:11:37.469Z,100285.84
2023-03-07T07:16:36.746Z,100435.63
2023-03-07T07:21:39.767Z,100331.91
2023-03-07T07:26:33.279Z,100311.63
2023-03-07T07:31:27.403Z,100294.88
2023-03-07T07:36:23.909Z,100417.66
2023-03-07T07:41:20.651Z,100399.72
2023-03-07T07:46:22.901Z,100299.13
2023-03-07T07:51:17.535Z,100393.31
2023-03-07T07:56:12.492Z,100429.22
2023-03-07T08:01:15.149Z,100293.19
2023-03-07T08:06:09.490Z,100344.97
2023-03-07T08:11:05.661Z,100341.78
2023-03-07T08:16:00.670Z,100359.09
2023-03-07T08:20:56.927Z,100439.38
2023-03-07T08:25:56.904Z,100293.06
2023-03-07T08:30:50.422Z,100425.22
2023-03-07T08:35:45.482Z,100371.88
2023-03-07T08:40:38.856Z,100355.81
2023-03-07T08:45:32.179Z,100339.34
2023-03-07T08:50:27.800Z,100415.19
2023-03-07T08:55:22.595Z,100418.75
2023-03-07T09:00:18.200Z,100415.09
2023-03-07T09:05:11.861Z,100344.09
2023-03-07T09:10:06.052Z,100414.59
2023-03-07T09:15:00.617Z,100334.44
2023-03-07T09:19:56.288Z,100303.50
2023-03-07T09:24:49.572Z,100396.00
2023-03-07T09:29:45.806Z,100330.13
2023-03-07T09:34:43.300Z,100396.34
2023-03-07T09:39:36.677Z,100316.88
2023-03-07T09:44:58.489Z,100373.91
2023-03-07T09:50:15.410Z,100357.25
2023-03-07T09:55:18.660Z,100389.22
2023-03-07T10:00:32.686Z,100388.41
2023-03-07T10:05:34.045Z,100332.81
2023-03-07T10:10:42.068Z,100344.25
2023-03-07T10:15:50.083Z,100338.88
2023-03-07T10:20:50.608Z,100327.84
2023-03-07T10:25:54.513Z,100329.97
2023-03-07T10:30:53.891Z,100342.47
2023-03-07T10:35:56.462Z,100310.97
2023-03-07T10:40:55.635Z,100269.22
2023-03-07T10:45:49.035Z,100296.59
2023-03-07T10:50:50.216Z,100350.81
2023-03-07T10:55:51.591Z,100258.75
2023-03-07T11:00:59.855Z,100338.50
2023-03-07T11:05:56.489Z,100333.06
2023-03-07T11:10:51.148Z,100240.09
2023-03-07T11:15:45.026Z,100309.03
2023-03-07T11:20:52.885Z,100172.09
2023-03-07T11:25:46.432Z,100240.59
2023-03-07T11:30:47.970Z,100209.88
2023-03-07T11:36:01.399Z,100192.53
2023-03-07T11:41:04.260Z,100204.16
2023-03-07T11:46:07.410Z,100154.34
2023-03-07T11:51:04.745Z,100184.50
2023-03-07T11:56:29.865Z,100134.47
2023-03-07T12:01:35.873Z,100101.09
2023-03-07T12:06:38.558Z,100164.50
2023-03-07T12:11:52.386Z,100231.44
2023-03-07T12:17:03.901Z,100132.00
2023-03-07T12:22:29.210Z,100244.31
2023-03-07T12:27:30.660Z,100136.06
2023-03-07T12:32:29.433Z,100234.28
2023-03-07T12:37:34.775Z,100230.34
2023-03-07T12:42:41.683Z,100172.28
2023-03-07T12:47:51.968Z,100184.16
2023-03-07T12:52:49.572Z,100123.22
2023-03-07T12:57:45.780Z,100079.03
2023-03-07T13:02:44.907Z,100106.84
2023-03-07T13:07:38.311Z,100114.25
2023-03-07T13:12:34.864Z,100136.44
2023-03-07T13:18:00.749Z,100207.63
2023-03-07T13:23:13.575Z,100166.88
2023-03-07T13:28:35.468Z,100099.69
2023-03-07T13:33:30.374Z,100203.31
2023-03-07T13:38:34.188Z,100218.19
2023-03-07T13:44:01.718Z,100209.56
2023-03-07T13:49:06.032Z,100128.03
2023-03-07T13:54:17.704Z,100170.97
2023-03-07T13:59:30.965Z,100073.09
2023-03-07T14:04:39.554Z,100214.50
2023-03-07T14:09:43.370Z,100128.31
2023-03-07T14:14:53.412Z,100210.09
2023-03-07T14:19:56.294Z,100083.81
2023-03-07T14:25:05.348Z,100092.84
2023-03-07T14:30:01.242Z,100082.44
2023-03-07T14:34:57.418Z,100159.97
2023-03-07T14:40:18.627Z,100208.41
2023-03-07T14:45:21.573Z,100159.75
2023-03-07T14:50:19.451Z,100211.63
2023-03-07T14:55:19.273Z,100103.53
2023-03-07T15:00:17.052Z,100129.38
2023-03-07T15:05:19.665Z,100115.47
2023-03-07T15:10:18.535Z,100164.00
2023-03-07T15:15:21.367Z,100190.22
2023-03-07T15:20:21.069Z,100061.38
2023-03-07T15:25:20.415Z,100198.69
2023-03-07T15:30:25.286Z,100151.88
2023-03-07T15:35:21.020Z,100133.25
2023-03-07T15:40:28.061Z,100093.09
2023-03-07T15:45:30.882Z,100141.38
2023-03-07T15:50:29.756Z,100189.78
2023-03-07T15:55:27.159Z,100180.75
2023-03-07T16:00:27.668Z,100201.16
2023-03-07T16:05:38.293Z,100178.78
2023-03-07T16:10:35.979Z,100207.53
2023-03-07T16:15:31.666Z,100215.38
2023-03-07T16:20:28.739Z,100077.63
2023-03-07T16:25:25.810Z,100154.75
2023-03-07T16:31:35.662Z,100238.09
2023-03-07T16:36:31.823Z,100092.84
2023-03-07T16:41:30.334Z,100237.91
2023-03-07T16:47:01.318Z,100140.94
2023-03-07T16:52:17.792Z,100246.78
2023-03-07T16:57:42.400Z,100212.06
2023-03-07T17:03:01.008Z,100256.56
2023-03-07T17:08:24.310Z,100259.50
2023-03-07T17:13:28.169Z,100077.34
2023-03-07T17:18:46.493Z,100126.13
2023-03-07T17:29:53.555Z,100266.13
2023-03-07T17:34:54.539Z,100194.19
2023-03-07T17:39:48.649Z,100199.16
2023-03-07T17:44:43.518Z,100137.09
2023-03-07T17:49:39.166Z,100225.19
2023-03-07T17:54:40.763Z,100289.03
2023-03-07T17:59:46.551Z,100200.47
2023-03-07T18:04:40.054Z,100183.59
2023-03-07T18:09:33.923Z,100230.34
2023-03-07T18:14:29.104Z,100189.50
2023-03-07T18:20:18.086Z,100092.00
2023-03-07T18:25:28.480Z,100252.22
2023-03-07T18:30:24.545Z,100188.63
2023-03-07T18:35:18.123Z,100091.06
2023-03-07T18:40:25.678Z,100163.56
2023-03-07T18:45:56.778Z,100245.25
2023-03-07T18:50:58.967Z,100153.53
2023-03-07T19:03:15.337Z,100287.81
2023-03-07T19:14:38.311Z,100214.47
2023-03-07T19:19:33.303Z,100246.09
2023-03-07T19:25:02.488Z,100123.97
2023-03-07T19:29:58.877Z,100154.13
2023-03-07T19:35:05.345Z,100193.72
2023-03-07T19:39:58.851Z,100133.19
2023-03-07T19:44:58.590Z,100254.94
2023-03-07T19:49:52.025Z,100195.41
2023-03-07T19:54:48.315Z,100141.00
2023-03-07T20:00:00.490Z,100242.81
2023-03-07T20:04:57.626Z,100241.72
2023-03-07T20:09:54.984Z,100292.22
2023-03-07T20:14:49.569Z,100238.59
2023-03-07T20:19:44.690Z,100219.09
2023-03-07T20:24:38.242Z,100277.03
2023-03-07T20:30:04.860Z,100309.84
2023-03-07T20:35:22.412Z,100297.88
2023-03-07T20:46:36.626Z,100148.34
2023-03-07T20:51:33.686Z,100255.56
2023-03-07T20:56:28.828Z,100184.75
2023-03-07T21:01:24.260Z,100258.69
2023-03-07T21:06:27.213Z,100222.16
2023-03-07T21:11:31.504Z,100265.19
2023-03-07T21:16:28.632Z,100262.38
2023-03-07T21:26:33.620Z,100214.69
2023-03-07T21:31:28.393Z,100232.19
2023-03-07T21:36:22.646Z,100265.75
2023-03-07T21:41:17.224Z,100119.75
2023-03-07T21:46:14.014Z,100132.69
2023-03-07T21:51:08.049Z,100114.72
2023-03-07T21:56:07.181Z,100218.97
2023-03-07T22:01:00.731Z,100186.97
2023-03-07T22:05:57.312Z,100274.44
2023-03-07T22:10:59.518Z,100224.97
2023-03-07T22:15:57.452Z,100271.91
2023-03-07T22:20:50.760Z,100231.25
2023-03-07T22:26:04.506Z,100269.84
2023-03-07T22:31:02.196Z,100216.47
2023-03-07T22:35:57.745Z,100260.84
2023-03-07T22:40:51.346Z,100208.22
2023-03-07T22:45:50.968Z,100233.06
2023-03-07T22:50:44.374Z,100268.06
2023-03-07T22:55:41.116Z,100134.88
2023-03-07T23:00:40.181Z,100261.59
2023-03-07T23:05:35.444Z,100167.84
2023-03-07T23:10:30.042Z,100257.56
2023-03-07T23:15:32.459Z,100235.94
2023-03-07T23:20:29.190Z,100119.47
2023-03-07T23:25:23.901Z,100249.41
2023-03-07T23:30:20.358Z,100266.56
2023-03-07T23:35:13.881Z,100263.59
2023-03-07T23:40:08.490Z,100281.34
2023-03-07T23:45:03.233Z,100083.94
2023-03-07T23:49:56.618Z,100271.00
2023-03-07T23:54:50.003Z,100267.72
2023-03-07T23:59:43.316Z,100259.47
